createdAt,value
2023-03-23T15:59:29.689Z,0.50
2023-03-23T16:01:57.426Z,0.57
2023-03-23T16:04:24.456Z,0.57
2023-03-23T16:06:54.703Z,0.75
2023-03-23T16:09:21.783Z,0.60
2023-03-23T16:11:48.454Z,0.68
2023-03-23T16:14:15.461Z,0.60
2023-03-23T16:16:51.226Z,0.93
2023-03-23T16:19:20.250Z,0.30
2023-03-23T16:21:47.021Z,0.57
2023-03-23T16:24:13.638Z,0.28
2023-03-23T16:26:40.951Z,0.60
2023-03-23T16:29:28.467Z,0.50
2023-03-23T16:32:01.031Z,0.90
2023-03-23T16:34:29.954Z,0.63
2023-03-23T16:36:56.564Z,0.80
2023-03-23T16:39:23.342Z,0.70
2023-03-23T16:41:50.302Z,0.77
2023-03-23T16:44:17.022Z,0.65
2023-03-23T16:46:43.746Z,0.57
2023-03-23T16:49:10.629Z,1.02
2023-03-23T16:51:37.287Z,0.95
2023-03-23T16:54:04.369Z,0.68
2023-03-23T16:56:31.243Z,0.85
2023-03-23T16:58:57.869Z,1.08
2023-03-23T17:01:24.551Z,0.65
2023-03-23T17:03:51.388Z,0.82
2023-03-23T17:06:18.127Z,0.90
2023-03-23T17:08:44.885Z,1.40
2023-03-23T17:11:11.979Z,0.88
2023-03-23T17:13:38.935Z,0.90
2023-03-23T17:16:06.130Z,0.98
2023-03-23T17:18:32.833Z,1.00
2023-03-23T17:20:59.436Z,0.93
2023-03-23T17:23:26.454Z,1.15
2023-03-23T17:25:53.977Z,1.20
2023-03-23T17:28:21.126Z,1.10
2023-03-23T17:30:48.512Z,1.02
2023-03-23T17:33:15.346Z,1.80
2023-03-23T17:35:42.816Z,1.15
2023-03-23T17:38:09.840Z,0.90
2023-03-23T17:40:36.699Z,1.00
2023-03-23T17:43:03.517Z,0.88
2023-03-23T17:45:30.389Z,1.20
2023-03-23T17:47:57.146Z,1.17
2023-03-23T17:50:23.852Z,1.20
2023-03-23T17:52:50.730Z,1.20
2023-03-23T17:55:17.397Z,1.50
2023-03-23T17:57:44.907Z,1.20
2023-03-23T18:00:13.489Z,1.20
2023-03-23T18:02:40.343Z,1.55
2023-03-23T18:05:09.202Z,1.20
2023-03-23T18:07:36.797Z,1.40
2023-03-23T18:10:04.299Z,1.55
2023-03-23T18:12:31.081Z,1.70
2023-03-23T18:14:58.832Z,1.67
2023-03-23T18:17:26.587Z,1.73
2023-03-23T18:19:53.738Z,1.20
2023-03-23T18:22:20.683Z,1.23
2023-03-23T18:24:47.492Z,1.42
2023-03-23T18:27:14.376Z,1.35
2023-03-23T18:29:41.112Z,1.83
2023-03-23T18:32:08.316Z,1.60
2023-03-23T18:34:36.616Z,1.80
2023-03-23T18:37:03.898Z,1.30
2023-03-23T18:39:33.781Z,1.50
2023-03-23T18:42:01.000Z,1.75
2023-03-23T18:44:27.844Z,2.70
2023-03-23T18:46:54.476Z,1.45
2023-03-23T18:49:21.271Z,1.55
2023-03-23T18:51:48.206Z,1.63
2023-03-23T18:54:15.054Z,1.67
2023-03-23T18:56:41.775Z,1.23
2023-03-23T18:59:08.498Z,1.50
2023-03-23T19:01:35.273Z,2.00
2023-03-23T19:04:02.518Z,1.92
2023-03-23T19:06:34.538Z,1.80
2023-03-23T19:09:01.323Z,1.60
2023-03-23T19:11:28.110Z,1.45
2023-03-23T19:14:02.238Z,1.40
2023-03-23T19:16:35.508Z,1.40
2023-03-23T19:19:04.054Z,1.50
2023-03-23T19:21:32.022Z,1.58
2023-03-23T19:23:59.459Z,1.10
2023-03-23T19:26:38.171Z,1.40
2023-03-23T19:31:37.262Z,1.58
2023-03-23T19:34:04.600Z,1.42
2023-03-23T19:36:31.940Z,1.80
2023-03-23T19:39:02.607Z,1.90
2023-03-23T19:41:29.971Z,1.70
2023-03-23T19:43:56.692Z,1.98
2023-03-23T19:46:23.747Z,1.92
2023-03-23T19:48:50.752Z,1.98
2023-03-23T19:51:19.974Z,1.75
2023-03-23T19:53:47.017Z,1.67
2023-03-23T19:56:19.781Z,1.90
2023-03-23T19:58:46.941Z,2.33
2023-03-23T20:01:14.160Z,2.60
2023-03-23T20:03:42.057Z,2.47
2023-03-23T20:06:14.940Z,2.22
2023-03-23T20:08:44.615Z,2.05
2023-03-23T20:11:14.591Z,1.90
2023-03-23T20:13:41.584Z,1.70
2023-03-23T20:16:09.487Z,2.45
2023-03-23T20:18:38.036Z,2.53
2023-03-23T20:21:09.991Z,2.45
2023-03-23T20:23:38.390Z,2.10
2023-03-23T20:26:14.890Z,2.50
2023-03-23T20:28:42.587Z,2.10
2023-03-23T20:31:24.761Z,2.55
2023-03-23T20:34:02.336Z,2.60
2023-03-23T20:36:36.725Z,2.25
2023-03-23T20:39:05.571Z,2.20
2023-03-23T20:41:34.726Z,2.13
2023-03-23T20:44:02.224Z,2.53
2023-03-23T20:46:29.246Z,2.30
2023-03-23T20:48:55.942Z,2.20
2023-03-23T20:51:22.669Z,2.28
2023-03-23T20:53:50.057Z,2.75
2023-03-23T20:56:16.813Z,2.50
2023-03-23T20:58:43.534Z,2.72
2023-03-23T21:01:11.790Z,2.42
2023-03-23T21:03:40.767Z,2.45
2023-03-23T21:06:08.363Z,2.42
2023-03-23T21:08:37.272Z,2.03
2023-03-23T21:11:05.828Z,2.25
2023-03-23T21:13:33.130Z,2.30
2023-03-23T21:16:02.157Z,2.33
2023-03-23T21:18:29.197Z,2.40
2023-03-23T21:20:57.164Z,2.20
2023-03-23T21:23:26.482Z,2.40
2023-03-23T21:25:53.735Z,2.20
2023-03-23T21:28:20.660Z,3.10
2023-03-23T21:30:49.300Z,2.20
2023-03-23T21:33:17.088Z,2.20
2023-03-23T21:35:43.821Z,2.00
2023-03-23T21:38:19.738Z,2.53
2023-03-23T21:40:46.814Z,2.22
2023-03-23T21:43:16.410Z,2.28
2023-03-23T21:45:44.503Z,2.40
2023-03-23T21:48:12.631Z,2.47
2023-03-23T21:50:44.128Z,2.50
2023-03-23T21:53:18.220Z,2.80
2023-03-23T21:55:54.440Z,2.60
2023-03-23T21:58:25.039Z,2.33
2023-03-23T22:00:54.465Z,2.30
2023-03-23T22:03:23.389Z,2.10
2023-03-23T22:05:54.144Z,2.00
2023-03-23T22:08:22.332Z,1.92
2023-03-23T22:11:00.428Z,2.88
2023-03-23T22:13:30.350Z,2.15
2023-03-23T22:15:58.730Z,2.20
2023-03-23T22:18:26.021Z,2.70
2023-03-23T22:20:53.226Z,2.50
2023-03-23T22:23:20.023Z,2.42
2023-03-23T22:25:46.729Z,2.13
2023-03-23T22:28:13.416Z,2.30
2023-03-23T22:30:40.186Z,2.10
2023-03-23T22:33:07.032Z,2.30
2023-03-23T22:35:33.808Z,2.40
2023-03-23T22:38:02.945Z,2.08
2023-03-23T22:40:31.250Z,2.28
2023-03-23T22:42:58.321Z,1.92
2023-03-23T22:45:26.145Z,1.95
2023-03-23T22:47:53.214Z,2.20
2023-03-23T22:50:21.455Z,1.75
2023-03-23T22:52:48.477Z,2.00
2023-03-23T22:55:15.374Z,2.05
2023-03-23T22:57:42.146Z,2.08
2023-03-23T23:00:14.730Z,2.50
2023-03-23T23:02:44.982Z,2.33
2023-03-23T23:05:13.065Z,2.05
2023-03-23T23:07:39.819Z,2.17
2023-03-23T23:10:07.539Z,1.95
2023-03-23T23:12:35.218Z,2.00
2023-03-23T23:15:04.577Z,2.00
2023-03-23T23:17:32.456Z,2.47
2023-03-23T23:19:59.946Z,2.30
2023-03-23T23:22:27.399Z,1.73
2023-03-23T23:24:54.460Z,1.98
2023-03-23T23:27:21.321Z,2.25
2023-03-23T23:29:48.011Z,1.95
2023-03-23T23:32:14.766Z,1.98
2023-03-23T23:34:41.544Z,1.75
2023-03-23T23:37:09.013Z,1.90
2023-03-23T23:39:38.244Z,2.28
2023-03-23T23:42:05.769Z,2.25
2023-03-23T23:44:32.713Z,2.08
2023-03-23T23:46:59.381Z,2.13
2023-03-23T23:49:28.634Z,2.38
2023-03-23T23:51:56.446Z,2.33
2023-03-23T23:54:29.512Z,2.70
2023-03-23T23:57:01.117Z,2.78
2023-03-23T23:59:29.064Z,2.85
